sensor_id;sensor_type;location;lat;lon;timestamp;temperature;humidity
35613;DHT22;22054;51.646;7.078;2022-11-15T00:01:38;9.90;1.00
35613;DHT22;22054;51.646;7.078;2022-11-15T00:04:04;9.90;1.00
35613;DHT22;22054;51.646;7.078;2022-11-15T00:06:30;9.90;1.00
35613;DHT22;22054;51.646;7.078;2022-11-15T00:09:00;9.90;1.00
35613;DHT22;22054;51.646;7.078;2022-11-15T00:11:26;9.90;1.00
35613;DHT22;22054;51.646;7.078;2022-11-15T00:13:56;9.90;1.00
35613;DHT22;22054;51.646;7.078;2022-11-15T00:16:23;9.90;1.00
35613;DHT22;22054;51.646;7.078;2022-11-15T00:18:49;10.10;1.00
35613;DHT22;22054;51.646;7.078;2022-11-15T00:21:16;10.00;1.00
35613;DHT22;22054;51.646;7.078;2022-11-15T00:23:42;10.10;1.00
35613;DHT22;22054;51.646;7.078;2022-11-15T00:26:13;10.10;1.00
35613;DHT22;22054;51.646;7.078;2022-11-15T00:28:40;10.10;1.00
35613;DHT22;22054;51.646;7.078;2022-11-15T00:31:11;10.10;1.00
35613;DHT22;22054;51.646;7.078;2022-11-15T00:33:38;10.20;1.00
35613;DHT22;22054;51.646;7.078;2022-11-15T00:36:06;10.10;1.00
35613;DHT22;22054;51.646;7.078;2022-11-15T00:38:35;10.10;1.00
35613;DHT22;22054;51.646;7.078;2022-11-15T00:41:03;10.10;1.00
35613;DHT22;22054;51.646;7.078;2022-11-15T00:43:30;10.20;1.00
35613;DHT22;22054;51.646;7.078;2022-11-15T00:45:56;10.20;1.00
35613;DHT22;22054;51.646;7.078;2022-11-15T00:48:22;10.20;1.00
35613;DHT22;22054;51.646;7.078;2022-11-15T00:50:48;10.20;1.00
35613;DHT22;22054;51.646;7.078;2022-11-15T00:53:15;10.20;1.00
35613;DHT22;22054;51.646;7.078;2022-11-15T00:55:41;10.30;1.00
35613;DHT22;22054;51.646;7.078;2022-11-15T00:58:07;10.30;1.00
35613;DHT22;22054;51.646;7.078;2022-11-15T01:00:33;10.30;1.00
35613;DHT22;22054;51.646;7.078;2022-11-15T01:03:00;10.30;1.00
35613;DHT22;22054;51.646;7.078;2022-11-15T01:05:27;10.30;1.00
35613;DHT22;22054;51.646;7.078;2022-11-15T01:07:56;10.40;1.00
35613;DHT22;22054;51.646;7.078;2022-11-15T01:10:23;10.30;1.00
35613;DHT22;22054;51.646;7.078;2022-11-15T01:12:49;10.60;1.00
35613;DHT22;22054;51.646;7.078;2022-11-15T01:15:15;10.30;1.00
35613;DHT22;22054;51.646;7.078;2022-11-15T01:17:41;10.30;1.00
35613;DHT22;22054;51.646;7.078;2022-11-15T01:20:07;10.30;1.00
35613;DHT22;22054;51.646;7.078;2022-11-15T01:22:33;10.40;1.00
35613;DHT22;22054;51.646;7.078;2022-11-15T01:24:59;10.40;1.00
35613;DHT22;22054;51.646;7.078;2022-11-15T01:27:25;10.50;1.00
35613;DHT22;22054;51.646;7.078;2022-11-15T01:29:50;10.50;1.00
35613;DHT22;22054;51.646;7.078;2022-11-15T01:32:16;10.40;1.00
35613;DHT22;22054;51.646;7.078;2022-11-15T01:34:42;10.40;1.00
35613;DHT22;22054;51.646;7.078;2022-11-15T01:37:08;10.50;1.00
35613;DHT22;22054;51.646;7.078;2022-11-15T01:39:34;10.60;1.00
35613;DHT22;22054;51.646;7.078;2022-11-15T01:41:59;10.60;1.00
35613;DHT22;22054;51.646;7.078;2022-11-15T01:47:03;10.60;3.40
35613;DHT22;22054;51.646;7.078;2022-11-15T01:49:33;10.70;6.50
35613;DHT22;22054;51.646;7.078;2022-11-15T01:52:03;10.70;14.50
35613;DHT22;22054;51.646;7.078;2022-11-15T01:54:31;10.70;17.00
35613;DHT22;22054;51.646;7.078;2022-11-15T01:57:01;10.80;34.70
35613;DHT22;22054;51.646;7.078;2022-11-15T01:59:30;10.80;44.10
35613;DHT22;22054;51.646;7.078;2022-11-15T02:01:55;10.80;48.70
35613;DHT22;22054;51.646;7.078;2022-11-15T02:04:41;10.90;51.30
35613;DHT22;22054;51.646;7.078;2022-11-15T02:07:13;10.80;42.20
35613;DHT22;22054;51.646;7.078;2022-11-15T02:09:42;10.80;53.70
35613;DHT22;22054;51.646;7.078;2022-11-15T02:12:10;10.80;58.40
35613;DHT22;22054;51.646;7.078;2022-11-15T02:14:40;10.90;48.80
35613;DHT22;22054;51.646;7.078;2022-11-15T02:23:38;10.90;64.20
35613;DHT22;22054;51.646;7.078;2022-11-15T02:26:57;10.90;70.70
35613;DHT22;22054;51.646;7.078;2022-11-15T02:38:49;11.10;99.90
35613;DHT22;22054;51.646;7.078;2022-11-15T02:41:31;11.10;99.90
35613;DHT22;22054;51.646;7.078;2022-11-15T02:44:08;11.10;99.90
35613;DHT22;22054;51.646;7.078;2022-11-15T02:46:43;11.20;99.90
35613;DHT22;22054;51.646;7.078;2022-11-15T02:49:32;11.30;99.90
35613;DHT22;22054;51.646;7.078;2022-11-15T02:52:00;11.30;99.90
35613;DHT22;22054;51.646;7.078;2022-11-15T02:54:30;11.40;99.90
35613;DHT22;22054;51.646;7.078;2022-11-15T02:57:02;11.30;99.90
35613;DHT22;22054;51.646;7.078;2022-11-15T02:59:48;11.50;99.90
35613;DHT22;22054;51.646;7.078;2022-11-15T03:08:10;11.50;99.90
35613;DHT22;22054;51.646;7.078;2022-11-15T03:11:03;11.50;99.90
35613;DHT22;22054;51.646;7.078;2022-11-15T03:13:52;11.60;99.90
35613;DHT22;22054;51.646;7.078;2022-11-15T03:16:50;11.70;99.90
35613;DHT22;22054;51.646;7.078;2022-11-15T03:19:34;11.70;99.90
35613;DHT22;22054;51.646;7.078;2022-11-15T03:22:07;11.80;99.90
35613;DHT22;22054;51.646;7.078;2022-11-15T03:24:37;11.70;99.90
35613;DHT22;22054;51.646;7.078;2022-11-15T03:27:06;11.80;99.90
35613;DHT22;22054;51.646;7.078;2022-11-15T03:29:46;11.80;99.90
35613;DHT22;22054;51.646;7.078;2022-11-15T03:32:25;11.80;99.90
35613;DHT22;22054;51.646;7.078;2022-11-15T03:35:23;12.10;99.90
35613;DHT22;22054;51.646;7.078;2022-11-15T03:38:04;12.00;99.90
35613;DHT22;22054;51.646;7.078;2022-11-15T03:40:40;11.90;99.90
35613;DHT22;22054;51.646;7.078;2022-11-15T03:46:00;11.90;99.90
35613;DHT22;22054;51.646;7.078;2022-11-15T03:48:34;11.90;99.90
35613;DHT22;22054;51.646;7.078;2022-11-15T03:51:04;12.00;99.90
35613;DHT22;22054;51.646;7.078;2022-11-15T03:53:30;12.10;99.90
35613;DHT22;22054;51.646;7.078;2022-11-15T03:55:57;12.10;99.90
35613;DHT22;22054;51.646;7.078;2022-11-15T03:58:23;12.20;93.10
35613;DHT22;22054;51.646;7.078;2022-11-15T04:00:48;12.20;93.70
35613;DHT22;22054;51.646;7.078;2022-11-15T04:03:14;12.20;92.20
35613;DHT22;22054;51.646;7.078;2022-11-15T04:05:40;12.30;91.40
35613;DHT22;22054;51.646;7.078;2022-11-15T04:08:06;12.40;90.20
35613;DHT22;22054;51.646;7.078;2022-11-15T04:10:31;12.30;83.10
35613;DHT22;22054;51.646;7.078;2022-11-15T04:12:57;12.30;87.80
35613;DHT22;22054;51.646;7.078;2022-11-15T04:15:23;12.30;92.20
35613;DHT22;22054;51.646;7.078;2022-11-15T04:17:55;12.30;92.80
35613;DHT22;22054;51.646;7.078;2022-11-15T04:20:28;12.30;92.50
35613;DHT22;22054;51.646;7.078;2022-11-15T04:23:15;12.30;93.30
35613;DHT22;22054;51.646;7.078;2022-11-15T04:26:11;12.20;93.20
35613;DHT22;22054;51.646;7.078;2022-11-15T04:28:41;12.30;95.80
35613;DHT22;22054;51.646;7.078;2022-11-15T04:31:26;12.30;99.40
35613;DHT22;22054;51.646;7.078;2022-11-15T04:33:52;12.30;97.30
35613;DHT22;22054;51.646;7.078;2022-11-15T04:36:18;12.40;96.90
35613;DHT22;22054;51.646;7.078;2022-11-15T04:39:03;12.40;99.60
35613;DHT22;22054;51.646;7.078;2022-11-15T04:41:29;12.50;92.40
35613;DHT22;22054;51.646;7.078;2022-11-15T04:43:55;12.50;83.40
35613;DHT22;22054;51.646;7.078;2022-11-15T04:46:21;12.60;75.80
35613;DHT22;22054;51.646;7.078;2022-11-15T04:48:48;12.50;83.80
35613;DHT22;22054;51.646;7.078;2022-11-15T04:51:13;12.60;90.20
35613;DHT22;22054;51.646;7.078;2022-11-15T04:53:39;12.60;99.90
35613;DHT22;22054;51.646;7.078;2022-11-15T04:56:05;12.40;99.90
35613;DHT22;22054;51.646;7.078;2022-11-15T04:58:34;12.40;99.90
35613;DHT22;22054;51.646;7.078;2022-11-15T05:01:10;12.30;99.90
35613;DHT22;22054;51.646;7.078;2022-11-15T05:03:39;12.30;99.90
35613;DHT22;22054;51.646;7.078;2022-11-15T05:06:23;12.30;99.90
35613;DHT22;22054;51.646;7.078;2022-11-15T05:08:49;12.40;99.90
35613;DHT22;22054;51.646;7.078;2022-11-15T05:11:15;12.30;99.90
35613;DHT22;22054;51.646;7.078;2022-11-15T05:13:40;12.40;99.90
35613;DHT22;22054;51.646;7.078;2022-11-15T05:16:07;12.40;99.90
35613;DHT22;22054;51.646;7.078;2022-11-15T05:18:33;12.50;99.90
35613;DHT22;22054;51.646;7.078;2022-11-15T05:21:06;12.50;99.90
35613;DHT22;22054;51.646;7.078;2022-11-15T05:23:33;12.60;99.90
35613;DHT22;22054;51.646;7.078;2022-11-15T05:26:02;12.60;99.90
35613;DHT22;22054;51.646;7.078;2022-11-15T05:28:30;12.70;99.90
35613;DHT22;22054;51.646;7.078;2022-11-15T05:31:05;12.70;99.20
35613;DHT22;22054;51.646;7.078;2022-11-15T05:33:39;12.70;93.20
35613;DHT22;22054;51.646;7.078;2022-11-15T05:36:13;12.70;94.20
35613;DHT22;22054;51.646;7.078;2022-11-15T05:39:02;12.70;94.10
35613;DHT22;22054;51.646;7.078;2022-11-15T05:41:37;12.70;96.00
35613;DHT22;22054;51.646;7.078;2022-11-15T05:44:07;12.70;83.80
35613;DHT22;22054;51.646;7.078;2022-11-15T05:46:36;12.80;77.80
35613;DHT22;22054;51.646;7.078;2022-11-15T05:49:09;12.80;70.70
35613;DHT22;22054;51.646;7.078;2022-11-15T05:51:38;12.80;74.20
35613;DHT22;22054;51.646;7.078;2022-11-15T05:54:05;12.80;78.60
35613;DHT22;22054;51.646;7.078;2022-11-15T05:56:31;12.90;93.50
35613;DHT22;22054;51.646;7.078;2022-11-15T05:58:58;12.80;99.90
35613;DHT22;22054;51.646;7.078;2022-11-15T06:01:25;12.80;99.90
35613;DHT22;22054;51.646;7.078;2022-11-15T06:03:53;12.80;99.90
35613;DHT22;22054;51.646;7.078;2022-11-15T06:06:19;12.70;99.90
35613;DHT22;22054;51.646;7.078;2022-11-15T06:08:44;12.70;99.90
35613;DHT22;22054;51.646;7.078;2022-11-15T06:11:10;12.70;99.90
35613;DHT22;22054;51.646;7.078;2022-11-15T06:13:36;12.70;99.90
35613;DHT22;22054;51.646;7.078;2022-11-15T06:16:02;12.60;99.90
35613;DHT22;22054;51.646;7.078;2022-11-15T06:18:27;12.60;99.90
35613;DHT22;22054;51.646;7.078;2022-11-15T06:20:53;12.60;99.90
35613;DHT22;22054;51.646;7.078;2022-11-15T06:23:19;12.50;99.90
35613;DHT22;22054;51.646;7.078;2022-11-15T06:25:45;12.40;99.90
35613;DHT22;22054;51.646;7.078;2022-11-15T06:28:10;12.50;99.90
35613;DHT22;22054;51.646;7.078;2022-11-15T06:30:36;12.40;99.90
35613;DHT22;22054;51.646;7.078;2022-11-15T06:33:04;12.40;99.90
35613;DHT22;22054;51.646;7.078;2022-11-15T06:35:33;12.40;99.90
35613;DHT22;22054;51.646;7.078;2022-11-15T06:38:07;12.40;99.90
35613;DHT22;22054;51.646;7.078;2022-11-15T06:40:35;12.40;99.90
35613;DHT22;22054;51.646;7.078;2022-11-15T06:43:03;12.40;99.90
35613;DHT22;22054;51.646;7.078;2022-11-15T06:45:29;12.50;99.90
35613;DHT22;22054;51.646;7.078;2022-11-15T06:47:55;12.40;99.90
35613;DHT22;22054;51.646;7.078;2022-11-15T06:50:21;12.50;99.90
35613;DHT22;22054;51.646;7.078;2022-11-15T06:52:47;12.40;99.90
35613;DHT22;22054;51.646;7.078;2022-11-15T06:55:13;12.40;99.90
35613;DHT22;22054;51.646;7.078;2022-11-15T06:57:47;12.40;99.90
35613;DHT22;22054;51.646;7.078;2022-11-15T07:00:20;12.40;99.90
35613;DHT22;22054;51.646;7.078;2022-11-15T07:03:00;12.40;99.90
35613;DHT22;22054;51.646;7.078;2022-11-15T07:05:27;12.50;99.90
35613;DHT22;22054;51.646;7.078;2022-11-15T07:07:54;12.40;99.90
35613;DHT22;22054;51.646;7.078;2022-11-15T07:10:20;12.50;99.90
35613;DHT22;22054;51.646;7.078;2022-11-15T07:12:48;12.50;99.90
35613;DHT22;22054;51.646;7.078;2022-11-15T07:15:15;12.50;99.90
35613;DHT22;22054;51.646;7.078;2022-11-15T07:17:42;12.40;99.90
35613;DHT22;22054;51.646;7.078;2022-11-15T07:20:08;12.60;99.90
35613;DHT22;22054;51.646;7.078;2022-11-15T07:22:34;12.60;99.90
35613;DHT22;22054;51.646;7.078;2022-11-15T07:25:00;12.60;99.90
35613;DHT22;22054;51.646;7.078;2022-11-15T07:27:25;12.60;99.90
35613;DHT22;22054;51.646;7.078;2022-11-15T07:29:51;12.60;99.90
35613;DHT22;22054;51.646;7.078;2022-11-15T07:32:17;12.60;99.90
35613;DHT22;22054;51.646;7.078;2022-11-15T07:34:43;12.50;99.90
35613;DHT22;22054;51.646;7.078;2022-11-15T07:37:11;12.50;99.90
35613;DHT22;22054;51.646;7.078;2022-11-15T07:39:37;12.50;99.90
35613;DHT22;22054;51.646;7.078;2022-11-15T07:42:03;12.50;99.90
35613;DHT22;22054;51.646;7.078;2022-11-15T07:44:47;12.50;99.90
35613;DHT22;22054;51.646;7.078;2022-11-15T07:47:13;12.50;99.90
35613;DHT22;22054;51.646;7.078;2022-11-15T07:49:38;12.60;99.90
35613;DHT22;22054;51.646;7.078;2022-11-15T07:52:04;12.60;99.90
35613;DHT22;22054;51.646;7.078;2022-11-15T07:54:30;12.60;99.90
35613;DHT22;22054;51.646;7.078;2022-11-15T07:56:56;12.70;99.90
35613;DHT22;22054;51.646;7.078;2022-11-15T07:59:22;12.70;99.90
35613;DHT22;22054;51.646;7.078;2022-11-15T08:01:47;12.70;99.90
35613;DHT22;22054;51.646;7.078;2022-11-15T08:04:13;12.80;99.90
35613;DHT22;22054;51.646;7.078;2022-11-15T08:06:39;12.80;99.90
35613;DHT22;22054;51.646;7.078;2022-11-15T08:09:04;12.90;95.70
35613;DHT22;22054;51.646;7.078;2022-11-15T08:11:33;12.90;79.60
35613;DHT22;22054;51.646;7.078;2022-11-15T08:13:59;13.00;58.40
35613;DHT22;22054;51.646;7.078;2022-11-15T08:16:25;13.10;29.90
35613;DHT22;22054;51.646;7.078;2022-11-15T08:18:50;13.10;1.00
35613;DHT22;22054;51.646;7.078;2022-11-15T08:21:19;13.20;1.00
35613;DHT22;22054;51.646;7.078;2022-11-15T08:23:45;13.20;1.00
35613;DHT22;22054;51.646;7.078;2022-11-15T08:26:14;13.30;1.00
35613;DHT22;22054;51.646;7.078;2022-11-15T08:28:41;13.30;1.00
35613;DHT22;22054;51.646;7.078;2022-11-15T08:31:12;13.30;1.00
35613;DHT22;22054;51.646;7.078;2022-11-15T08:33:39;13.30;1.00
35613;DHT22;22054;51.646;7.078;2022-11-15T08:36:05;13.20;1.00
35613;DHT22;22054;51.646;7.078;2022-11-15T08:38:30;13.30;1.00
35613;DHT22;22054;51.646;7.078;2022-11-15T08:41:01;13.40;1.00
35613;DHT22;22054;51.646;7.078;2022-11-15T08:43:28;13.40;1.00
35613;DHT22;22054;51.646;7.078;2022-11-15T08:45:58;13.60;1.00
35613;DHT22;22054;51.646;7.078;2022-11-15T08:48:24;13.60;1.00
35613;DHT22;22054;51.646;7.078;2022-11-15T08:50:56;13.50;1.00
35613;DHT22;22054;51.646;7.078;2022-11-15T08:53:22;13.40;1.00
35613;DHT22;22054;51.646;7.078;2022-11-15T08:55:48;13.10;1.00
35613;DHT22;22054;51.646;7.078;2022-11-15T08:58:13;12.80;1.00
35613;DHT22;22054;51.646;7.078;2022-11-15T09:00:39;12.60;1.00
35613;DHT22;22054;51.646;7.078;2022-11-15T09:03:06;12.50;1.00
35613;DHT22;22054;51.646;7.078;2022-11-15T09:05:32;12.50;1.00
35613;DHT22;22054;51.646;7.078;2022-11-15T09:08:01;12.50;1.00
35613;DHT22;22054;51.646;7.078;2022-11-15T09:10:26;12.50;1.00
35613;DHT22;22054;51.646;7.078;2022-11-15T09:12:52;12.60;1.00
35613;DHT22;22054;51.646;7.078;2022-11-15T09:15:18;12.60;1.00
35613;DHT22;22054;51.646;7.078;2022-11-15T09:17:45;12.70;1.00
35613;DHT22;22054;51.646;7.078;2022-11-15T09:20:11;12.70;1.00
35613;DHT22;22054;51.646;7.078;2022-11-15T09:22:36;12.80;1.00
35613;DHT22;22054;51.646;7.078;2022-11-15T09:25:04;12.90;1.00
35613;DHT22;22054;51.646;7.078;2022-11-15T09:27:30;12.90;1.00
35613;DHT22;22054;51.646;7.078;2022-11-15T09:29:56;12.80;1.00
35613;DHT22;22054;51.646;7.078;2022-11-15T09:32:22;12.90;1.00
35613;DHT22;22054;51.646;7.078;2022-11-15T09:34:49;12.90;1.00
35613;DHT22;22054;51.646;7.078;2022-11-15T09:37:15;12.90;1.00
35613;DHT22;22054;51.646;7.078;2022-11-15T09:39:41;12.90;1.00
35613;DHT22;22054;51.646;7.078;2022-11-15T09:50:47;13.30;1.00
35613;DHT22;22054;51.646;7.078;2022-11-15T09:53:25;13.40;1.00
35613;DHT22;22054;51.646;7.078;2022-11-15T09:56:00;13.50;1.00
35613;DHT22;22054;51.646;7.078;2022-11-15T09:58:36;13.50;1.00
35613;DHT22;22054;51.646;7.078;2022-11-15T10:01:18;13.70;1.00
35613;DHT22;22054;51.646;7.078;2022-11-15T10:03:55;13.90;1.00
35613;DHT22;22054;51.646;7.078;2022-11-15T10:06:25;14.20;99.90
35613;DHT22;22054;51.646;7.078;2022-11-15T10:08:58;14.50;1.00
35613;DHT22;22054;51.646;7.078;2022-11-15T10:11:31;14.70;1.00
35613;DHT22;22054;51.646;7.078;2022-11-15T10:14:07;14.90;1.00
35613;DHT22;22054;51.646;7.078;2022-11-15T10:20:00;15.00;1.00
35613;DHT22;22054;51.646;7.078;2022-11-15T10:22:50;15.70;1.00
35613;DHT22;22054;51.646;7.078;2022-11-15T10:25:19;16.30;1.00
35613;DHT22;22054;51.646;7.078;2022-11-15T10:27:50;16.50;40.20
35613;DHT22;22054;51.646;7.078;2022-11-15T10:30:19;16.20;99.90
35613;DHT22;22054;51.646;7.078;2022-11-15T10:32:46;16.60;1.00
35613;DHT22;22054;51.646;7.078;2022-11-15T10:35:29;16.90;99.90
35613;DHT22;22054;51.646;7.078;2022-11-15T10:38:06;17.00;1.00
35613;DHT22;22054;51.646;7.078;2022-11-15T10:40:34;17.10;1.00
35613;DHT22;22054;51.646;7.078;2022-11-15T10:43:14;17.20;99.90
35613;DHT22;22054;51.646;7.078;2022-11-15T10:45:46;17.30;99.90
35613;DHT22;22054;51.646;7.078;2022-11-15T10:50:38;17.80;1.00
35613;DHT22;22054;51.646;7.078;2022-11-15T10:53:19;18.10;99.90
35613;DHT22;22054;51.646;7.078;2022-11-15T10:55:52;18.50;16.60
35613;DHT22;22054;51.646;7.078;2022-11-15T10:58:41;18.70;1.00
35613;DHT22;22054;51.646;7.078;2022-11-15T11:03:39;19.00;99.90
35613;DHT22;22054;51.646;7.078;2022-11-15T11:06:17;19.00;99.90
35613;DHT22;22054;51.646;7.078;2022-11-15T11:08:58;19.00;99.90
35613;DHT22;22054;51.646;7.078;2022-11-15T11:11:47;19.60;99.90
35613;DHT22;22054;51.646;7.078;2022-11-15T11:14:34;19.40;99.90
35613;DHT22;22054;51.646;7.078;2022-11-15T11:17:23;19.20;99.90
35613;DHT22;22054;51.646;7.078;2022-11-15T11:26:18;20.50;10.80
35613;DHT22;22054;51.646;7.078;2022-11-15T11:35:30;20.30;1.00
35613;DHT22;22054;51.646;7.078;2022-11-15T11:47:11;21.00;1.00
35613;DHT22;22054;51.646;7.078;2022-11-15T11:49:54;20.60;1.00
35613;DHT22;22054;51.646;7.078;2022-11-15T11:58:23;22.80;1.00
35613;DHT22;22054;51.646;7.078;2022-11-15T12:00:55;23.10;1.00
35613;DHT22;22054;51.646;7.078;2022-11-15T12:06:22;21.50;1.00
35613;DHT22;22054;51.646;7.078;2022-11-15T12:08:58;20.40;1.00
35613;DHT22;22054;51.646;7.078;2022-11-15T12:14:33;20.20;1.00
35613;DHT22;22054;51.646;7.078;2022-11-15T12:17:00;20.30;1.00
35613;DHT22;22054;51.646;7.078;2022-11-15T12:19:26;21.40;1.00
35613;DHT22;22054;51.646;7.078;2022-11-15T12:25:30;21.90;1.00
35613;DHT22;22054;51.646;7.078;2022-11-15T12:28:24;21.10;1.00
35613;DHT22;22054;51.646;7.078;2022-11-15T12:31:47;20.60;1.00
35613;DHT22;22054;51.646;7.078;2022-11-15T12:34:45;20.70;1.00
35613;DHT22;22054;51.646;7.078;2022-11-15T12:45:44;20.40;1.00
35613;DHT22;22054;51.646;7.078;2022-11-15T12:53:31;21.90;1.00
35613;DHT22;22054;51.646;7.078;2022-11-15T13:04:28;21.60;1.00
35613;DHT22;22054;51.646;7.078;2022-11-15T13:07:00;22.00;1.00
35613;DHT22;22054;51.646;7.078;2022-11-15T13:12:09;22.80;1.00
35613;DHT22;22054;51.646;7.078;2022-11-15T13:16:06;22.60;1.00
35613;DHT22;22054;51.646;7.078;2022-11-15T13:18:32;22.10;1.00
35613;DHT22;22054;51.646;7.078;2022-11-15T13:21:01;21.60;1.00
35613;DHT22;22054;51.646;7.078;2022-11-15T13:23:52;21.70;1.00
35613;DHT22;22054;51.646;7.078;2022-11-15T13:26:19;21.90;1.00
35613;DHT22;22054;51.646;7.078;2022-11-15T13:28:47;22.50;1.00
35613;DHT22;22054;51.646;7.078;2022-11-15T13:33:56;23.30;1.00
35613;DHT22;22054;51.646;7.078;2022-11-15T13:36:32;23.20;1.00
35613;DHT22;22054;51.646;7.078;2022-11-15T13:39:13;22.60;1.00
35613;DHT22;22054;51.646;7.078;2022-11-15T13:41:56;21.80;1.00
35613;DHT22;22054;51.646;7.078;2022-11-15T13:44:33;20.90;1.00
35613;DHT22;22054;51.646;7.078;2022-11-15T13:47:20;20.50;1.00
35613;DHT22;22054;51.646;7.078;2022-11-15T13:49:53;20.20;1.00
35613;DHT22;22054;51.646;7.078;2022-11-15T13:52:19;19.40;1.00
35613;DHT22;22054;51.646;7.078;2022-11-15T13:55:10;18.70;1.00
35613;DHT22;22054;51.646;7.078;2022-11-15T13:57:54;18.10;1.00
35613;DHT22;22054;51.646;7.078;2022-11-15T14:00:44;17.60;33.50
35613;DHT22;22054;51.646;7.078;2022-11-15T14:03:24;17.40;99.90
35613;DHT22;22054;51.646;7.078;2022-11-15T14:06:13;17.00;99.90
35613;DHT22;22054;51.646;7.078;2022-11-15T14:09:15;17.00;99.90
35613;DHT22;22054;51.646;7.078;2022-11-15T14:12:33;17.00;99.90
35613;DHT22;22054;51.646;7.078;2022-11-15T14:15:18;16.80;1.00
35613;DHT22;22054;51.646;7.078;2022-11-15T14:17:50;16.60;1.00
35613;DHT22;22054;51.646;7.078;2022-11-15T14:20:37;16.40;1.00
35613;DHT22;22054;51.646;7.078;2022-11-15T14:23:26;16.10;1.00
35613;DHT22;22054;51.646;7.078;2022-11-15T14:25:56;15.70;1.00
35613;DHT22;22054;51.646;7.078;2022-11-15T14:30:50;15.70;99.90
35613;DHT22;22054;51.646;7.078;2022-11-15T14:33:36;15.60;99.90
35613;DHT22;22054;51.646;7.078;2022-11-15T14:36:14;15.60;99.90
35613;DHT22;22054;51.646;7.078;2022-11-15T14:38:41;15.60;1.00
35613;DHT22;22054;51.646;7.078;2022-11-15T14:41:18;15.50;1.00
35613;DHT22;22054;51.646;7.078;2022-11-15T14:43:46;15.50;1.00
35613;DHT22;22054;51.646;7.078;2022-11-15T14:46:12;15.40;1.00
35613;DHT22;22054;51.646;7.078;2022-11-15T14:48:38;15.40;1.00
35613;DHT22;22054;51.646;7.078;2022-11-15T14:51:13;15.40;3.30
35613;DHT22;22054;51.646;7.078;2022-11-15T14:53:44;15.20;99.90
35613;DHT22;22054;51.646;7.078;2022-11-15T14:56:23;15.10;99.90
35613;DHT22;22054;51.646;7.078;2022-11-15T14:58:51;15.10;99.90
35613;DHT22;22054;51.646;7.078;2022-11-15T15:01:25;15.10;1.00
35613;DHT22;22054;51.646;7.078;2022-11-15T15:03:52;15.00;1.00
35613;DHT22;22054;51.646;7.078;2022-11-15T15:06:21;15.00;1.00
35613;DHT22;22054;51.646;7.078;2022-11-15T15:12:21;14.90;38.50
35613;DHT22;22054;51.646;7.078;2022-11-15T15:14:51;14.80;99.90
35613;DHT22;22054;51.646;7.078;2022-11-15T15:17:17;14.70;1.00
35613;DHT22;22054;51.646;7.078;2022-11-15T15:23:54;14.60;1.00
35613;DHT22;22054;51.646;7.078;2022-11-15T15:31:17;14.40;99.90
35613;DHT22;22054;51.646;7.078;2022-11-15T15:33:44;14.30;1.00
35613;DHT22;22054;51.646;7.078;2022-11-15T15:39:53;14.10;99.90
35613;DHT22;22054;51.646;7.078;2022-11-15T15:42:26;14.00;1.00
35613;DHT22;22054;51.646;7.078;2022-11-15T15:45:05;14.00;1.00
35613;DHT22;22054;51.646;7.078;2022-11-15T15:51:41;14.00;99.90
35613;DHT22;22054;51.646;7.078;2022-11-15T15:54:37;14.00;99.90
35613;DHT22;22054;51.646;7.078;2022-11-15T15:57:44;13.90;1.00
35613;DHT22;22054;51.646;7.078;2022-11-15T16:02:46;13.80;1.00
35613;DHT22;22054;51.646;7.078;2022-11-15T16:05:12;13.80;1.00
35613;DHT22;22054;51.646;7.078;2022-11-15T16:07:39;13.80;1.00
35613;DHT22;22054;51.646;7.078;2022-11-15T16:10:32;13.90;1.00
35613;DHT22;22054;51.646;7.078;2022-11-15T16:13:02;13.90;1.00
35613;DHT22;22054;51.646;7.078;2022-11-15T16:15:30;13.80;1.00
35613;DHT22;22054;51.646;7.078;2022-11-15T16:17:58;13.80;99.90
35613;DHT22;22054;51.646;7.078;2022-11-15T16:20:40;13.70;1.00
35613;DHT22;22054;51.646;7.078;2022-11-15T16:23:14;13.70;1.00
35613;DHT22;22054;51.646;7.078;2022-11-15T16:25:47;13.70;1.00
35613;DHT22;22054;51.646;7.078;2022-11-15T16:30:43;13.90;99.90
35613;DHT22;22054;51.646;7.078;2022-11-15T16:33:09;13.70;99.50
35613;DHT22;22054;51.646;7.078;2022-11-15T16:35:35;13.60;1.00
35613;DHT22;22054;51.646;7.078;2022-11-15T16:38:01;13.70;1.00
35613;DHT22;22054;51.646;7.078;2022-11-15T16:40:31;13.70;1.00
35613;DHT22;22054;51.646;7.078;2022-11-15T16:42:59;13.60;1.00
35613;DHT22;22054;51.646;7.078;2022-11-15T16:45:27;13.60;1.00
35613;DHT22;22054;51.646;7.078;2022-11-15T16:47:54;13.60;1.00
35613;DHT22;22054;51.646;7.078;2022-11-15T16:50:23;13.60;1.00
35613;DHT22;22054;51.646;7.078;2022-11-15T16:52:57;13.70;1.00
35613;DHT22;22054;51.646;7.078;2022-11-15T16:55:27;13.60;1.00
35613;DHT22;22054;51.646;7.078;2022-11-15T16:57:54;13.60;99.90
35613;DHT22;22054;51.646;7.078;2022-11-15T17:00:22;13.80;1.00
35613;DHT22;22054;51.646;7.078;2022-11-15T17:02:50;13.70;1.00
35613;DHT22;22054;51.646;7.078;2022-11-15T17:05:21;13.60;91.10
35613;DHT22;22054;51.646;7.078;2022-11-15T17:07:49;13.60;99.90
35613;DHT22;22054;51.646;7.078;2022-11-15T17:10:20;13.60;22.80
35613;DHT22;22054;51.646;7.078;2022-11-15T17:12:46;13.60;99.90
35613;DHT22;22054;51.646;7.078;2022-11-15T17:15:12;13.50;99.90
35613;DHT22;22054;51.646;7.078;2022-11-15T17:17:39;13.70;1.00
35613;DHT22;22054;51.646;7.078;2022-11-15T17:20:06;13.50;1.00
35613;DHT22;22054;51.646;7.078;2022-11-15T17:22:38;13.50;1.00
35613;DHT22;22054;51.646;7.078;2022-11-15T17:25:04;13.50;1.00
35613;DHT22;22054;51.646;7.078;2022-11-15T17:27:30;13.60;30.10
35613;DHT22;22054;51.646;7.078;2022-11-15T17:29:56;13.60;1.00
35613;DHT22;22054;51.646;7.078;2022-11-15T17:32:22;13.60;99.90
35613;DHT22;22054;51.646;7.078;2022-11-15T17:34:48;13.60;35.80
35613;DHT22;22054;51.646;7.078;2022-11-15T17:37:14;13.60;99.90
35613;DHT22;22054;51.646;7.078;2022-11-15T17:39:40;13.60;99.90
35613;DHT22;22054;51.646;7.078;2022-11-15T17:42:05;13.60;99.90
35613;DHT22;22054;51.646;7.078;2022-11-15T17:44:31;13.60;1.00
35613;DHT22;22054;51.646;7.078;2022-11-15T17:46:57;13.60;1.00
35613;DHT22;22054;51.646;7.078;2022-11-15T17:49:23;13.60;1.00
35613;DHT22;22054;51.646;7.078;2022-11-15T17:51:49;13.60;1.00
35613;DHT22;22054;51.646;7.078;2022-11-15T17:54:14;13.50;1.00
35613;DHT22;22054;51.646;7.078;2022-11-15T17:56:40;13.50;1.00
35613;DHT22;22054;51.646;7.078;2022-11-15T17:59:06;13.50;1.00
35613;DHT22;22054;51.646;7.078;2022-11-15T18:01:34;13.50;1.00
35613;DHT22;22054;51.646;7.078;2022-11-15T18:04:04;13.60;1.00
35613;DHT22;22054;51.646;7.078;2022-11-15T18:06:33;13.60;99.90
35613;DHT22;22054;51.646;7.078;2022-11-15T18:09:01;13.50;1.00
35613;DHT22;22054;51.646;7.078;2022-11-15T18:11:28;13.50;1.00
35613;DHT22;22054;51.646;7.078;2022-11-15T18:13:59;13.50;1.00
35613;DHT22;22054;51.646;7.078;2022-11-15T18:16:30;13.50;1.00
35613;DHT22;22054;51.646;7.078;2022-11-15T18:18:58;13.40;1.00
35613;DHT22;22054;51.646;7.078;2022-11-15T18:21:29;13.40;1.00